createdAt,value
2022-08-22T00:02:23.819Z,20.20
2022-08-22T00:02:43.552Z,23.21
2022-08-22T00:02:47.157Z,21.43
2022-08-22T00:02:49.197Z,23.25
2022-08-22T00:05:27.303Z,20.17
2022-08-22T00:08:16.383Z,20.16
2022-08-22T00:11:03.602Z,20.13
2022-08-22T00:14:01.177Z,20.12
2022-08-22T00:16:33.849Z,20.08
2022-08-22T00:19:23.359Z,20.03
2022-08-22T00:22:12.437Z,20.00
2022-08-22T00:25:22.807Z,19.92
2022-08-22T00:28:11.522Z,19.91
2022-08-22T00:31:07.969Z,19.85
2022-08-22T00:33:51.642Z,19.89
2022-08-22T00:36:47.931Z,19.89
2022-08-22T00:39:29.846Z,19.89
2022-08-22T00:42:35.314Z,19.88
2022-08-22T00:45:25.719Z,19.86
2022-08-22T00:48:32.905Z,19.74
2022-08-22T00:51:41.011Z,19.79
2022-08-22T00:54:35.072Z,19.76
2022-08-22T00:57:45.082Z,19.74
2022-08-22T01:00:28.714Z,19.73
2022-08-22T01:03:40.773Z,19.72
2022-08-22T01:06:45.723Z,19.72
2022-08-22T01:09:37.636Z,19.70
2022-08-22T01:12:23.830Z,19.67
2022-08-22T01:15:10.240Z,19.62
2022-08-22T01:18:35.665Z,19.56
2022-08-22T01:22:02.781Z,19.48
2022-08-22T01:25:26.293Z,19.41
2022-08-22T01:28:31.653Z,19.37
2022-08-22T01:31:22.355Z,19.35
2022-08-22T01:34:02.872Z,19.35
2022-08-22T01:37:10.311Z,19.34
2022-08-22T01:40:27.900Z,19.31
2022-08-22T01:43:19.178Z,19.27
2022-08-22T01:46:13.293Z,19.25
2022-08-22T01:48:58.409Z,19.22
2022-08-22T01:51:43.265Z,19.20
2022-08-22T01:54:36.364Z,19.18
2022-08-22T01:57:08.788Z,19.13
2022-08-22T01:59:46.824Z,19.09
2022-08-22T02:02:32.779Z,19.06
2022-08-22T02:05:13.343Z,19.05
2022-08-22T02:08:02.978Z,19.05
2022-08-22T02:10:52.657Z,19.04
2022-08-22T02:13:42.723Z,19.02
2022-08-22T02:16:31.276Z,19.02
2022-08-22T02:19:14.669Z,19.01
2022-08-22T02:22:04.678Z,19.00
2022-08-22T02:25:08.767Z,18.97
2022-08-22T02:27:58.482Z,18.92
2022-08-22T02:30:47.088Z,18.87
2022-08-22T02:33:49.432Z,18.84
2022-08-22T02:36:53.978Z,18.81
2022-08-22T02:39:42.632Z,18.82
2022-08-22T02:42:16.738Z,18.82
2022-08-22T02:45:11.977Z,18.83
2022-08-22T02:48:06.673Z,18.85
2022-08-22T02:51:02.120Z,18.86
2022-08-22T02:53:46.487Z,18.87
2022-08-22T02:56:46.065Z,18.85
2022-08-22T02:59:37.723Z,18.81
2022-08-22T03:03:01.592Z,18.74
2022-08-22T03:05:52.176Z,18.67
2022-08-22T03:08:29.660Z,18.64
2022-08-22T03:11:28.172Z,18.63
2022-08-22T03:14:44.857Z,18.61
2022-08-22T03:17:31.837Z,18.60
2022-08-22T03:20:40.521Z,18.59
2022-08-22T03:23:31.481Z,18.57
2022-08-22T03:26:15.832Z,18.55
2022-08-22T03:28:59.283Z,18.56
2022-08-22T03:31:32.325Z,18.57
2022-08-22T03:34:22.558Z,18.59
2022-08-22T03:37:15.337Z,18.60
2022-08-22T03:40:08.067Z,18.59
2022-08-22T03:42:36.463Z,18.60
2022-08-22T03:45:30.335Z,18.61
2022-08-22T03:48:44.775Z,18.65
2022-08-22T03:51:57.939Z,18.69
2022-08-22T03:54:49.065Z,18.76
2022-08-22T03:58:06.231Z,18.83
2022-08-22T04:01:11.723Z,18.88
2022-08-22T04:04:22.761Z,18.96
2022-08-22T04:07:03.499Z,19.02
2022-08-22T04:10:31.355Z,19.06
2022-08-22T04:13:24.978Z,19.15
2022-08-22T04:16:14.551Z,19.25
2022-08-22T04:19:51.271Z,19.35
2022-08-22T04:22:47.002Z,19.48
2022-08-22T04:25:36.063Z,19.62
2022-08-22T04:28:34.951Z,19.73
2022-08-22T04:31:18.206Z,19.83
2022-08-22T04:34:25.357Z,19.94
2022-08-22T04:37:04.074Z,20.05
2022-08-22T04:39:48.508Z,20.16
2022-08-22T04:42:33.518Z,20.25
2022-08-22T04:45:20.103Z,20.36
2022-08-22T04:48:19.753Z,20.49
2022-08-22T04:51:03.405Z,20.62
2022-08-22T04:53:49.866Z,20.72
2022-08-22T04:57:03.097Z,20.82
2022-08-22T04:59:33.591Z,20.95
2022-08-22T05:02:07.420Z,21.05
2022-08-22T05:04:48.590Z,21.13
2022-08-22T05:07:23.345Z,21.23
2022-08-22T05:10:11.843Z,21.33
2022-08-22T05:12:49.760Z,21.44
2022-08-22T05:15:29.001Z,21.55
2022-08-22T05:18:04.247Z,21.63
2022-08-22T05:20:35.005Z,21.73
2022-08-22T05:23:29.492Z,21.83
2022-08-22T05:26:06.094Z,21.90
2022-08-22T05:28:59.300Z,21.97
2022-08-22T05:31:37.005Z,22.04
2022-08-22T05:34:14.507Z,22.12
2022-08-22T05:36:54.781Z,22.21
2022-08-22T05:39:27.988Z,22.33
2022-08-22T05:42:01.279Z,22.46
2022-08-22T05:44:38.377Z,22.57
2022-08-22T05:47:43.124Z,22.68
2022-08-22T05:50:35.153Z,22.84
2022-08-22T05:53:18.496Z,22.92
2022-08-22T05:56:02.398Z,23.01
2022-08-22T05:58:46.394Z,23.09
2022-08-22T06:01:47.040Z,23.19
2022-08-22T06:04:58.253Z,23.28
2022-08-22T06:07:57.072Z,23.38
2022-08-22T06:10:41.143Z,23.53
2022-08-22T06:13:33.026Z,23.64
2022-08-22T06:16:52.068Z,23.70
2022-08-22T06:19:24.242Z,23.76
2022-08-22T06:21:55.537Z,23.63
2022-08-22T06:24:27.374Z,23.90
2022-08-22T06:27:10.306Z,23.96
2022-08-22T06:29:51.815Z,24.11
2022-08-22T06:32:58.505Z,24.32
2022-08-22T06:35:56.207Z,24.46
2022-08-22T06:38:35.289Z,24.58
2022-08-22T06:41:09.037Z,24.63
2022-08-22T06:43:43.817Z,24.67
2022-08-22T06:46:16.905Z,24.70
2022-08-22T06:48:46.510Z,24.75
2022-08-22T06:51:18.953Z,24.82
2022-08-22T06:53:53.872Z,24.90
2022-08-22T06:56:29.939Z,25.00
2022-08-22T06:59:03.639Z,25.16
2022-08-22T07:01:44.326Z,25.34
2022-08-22T07:04:18.505Z,25.50
2022-08-22T07:06:50.501Z,25.60
2022-08-22T07:09:34.860Z,25.70
2022-08-22T07:12:29.358Z,25.85
2022-08-22T07:15:22.539Z,26.01
2022-08-22T07:17:59.698Z,26.13
2022-08-22T07:20:35.205Z,26.21
2022-08-22T07:23:11.787Z,26.30
2022-08-22T07:26:12.961Z,26.43
2022-08-22T07:28:58.442Z,26.59
2022-08-22T07:32:01.477Z,26.66
2022-08-22T07:34:55.103Z,26.63
2022-08-22T07:37:48.026Z,26.70
2022-08-22T07:41:12.337Z,26.85
2022-08-22T07:44:18.066Z,27.03
2022-08-22T07:47:02.467Z,27.19
2022-08-22T07:49:53.033Z,27.29
2022-08-22T07:52:23.200Z,27.43
2022-08-22T07:54:58.110Z,27.52
2022-08-22T07:57:35.493Z,27.58
2022-08-22T08:00:26.738Z,27.68
2022-08-22T08:03:02.644Z,27.81
2022-08-22T08:05:34.530Z,27.94
2022-08-22T08:08:15.689Z,28.06
2022-08-22T08:10:45.276Z,28.10
2022-08-22T08:13:21.681Z,28.14
